Airport View

Enter AWOS ICAO identifier for current METAR.

ex. KFNL

KAQW 191752Z AUTO 23008KT 10SM FEW042 SCT070 SCT095 26/18 A2981 RMK AO2 SLP092 T02610178 10267 20194 56013

19 Jun 2019 18:47

Frequency: 134.775

Phone: 413-664-6658

Other Area AWOS: KDDH - KPSF - KALB - KSCH

TAF KPSF 191746Z 1918/2018 15005KT P6SM SCT028 BKN110 FM192000 17007KT P6SM -SHRA BKN030 FM200100 16005KT P6SM -SHRA BKN015 FM200300 14004KT P6SM BKN003 FM200600 VRB03KT 2SM BR BKN001 PROB30 2008/2012 1SM -SHRA BR FM201200 00000KT P6SM OVC001 PROB30 2012/2015 4SM -SHRA FM201500 VRB03KT P6SM -SHRA BKN008